sensor_id;sensor_type;location;lat;lon;timestamp;temperature;humidity
65478;SHT31;53678;39.642;22.430;2022-10-10T00:00:41;16.67;68.92
65478;SHT31;53678;39.642;22.430;2022-10-10T00:03:08;16.63;69.43
65478;SHT31;53678;39.642;22.430;2022-10-10T00:05:35;16.44;70.52
65478;SHT31;53678;39.642;22.430;2022-10-10T00:08:02;16.54;69.70
65478;SHT31;53678;39.642;22.430;2022-10-10T00:10:28;16.54;69.89
65478;SHT31;53678;39.642;22.430;2022-10-10T00:12:54;16.47;69.67
65478;SHT31;53678;39.642;22.430;2022-10-10T00:15:20;16.49;69.63
65478;SHT31;53678;39.642;22.430;2022-10-10T00:17:46;16.54;69.51
65478;SHT31;53678;39.642;22.430;2022-10-10T00:20:14;16.56;69.60
65478;SHT31;53678;39.642;22.430;2022-10-10T00:22:40;16.64;69.51
65478;SHT31;53678;39.642;22.430;2022-10-10T00:25:07;16.39;70.12
65478;SHT31;53678;39.642;22.430;2022-10-10T00:27:33;16.53;70.00
65478;SHT31;53678;39.642;22.430;2022-10-10T00:29:59;16.64;69.92
65478;SHT31;53678;39.642;22.430;2022-10-10T00:32:26;16.61;69.70
65478;SHT31;53678;39.642;22.430;2022-10-10T00:34:52;16.57;70.15
65478;SHT31;53678;39.642;22.430;2022-10-10T00:37:18;16.59;70.19
65478;SHT31;53678;39.642;22.430;2022-10-10T00:39:44;16.36;70.65
65478;SHT31;53678;39.642;22.430;2022-10-10T00:42:14;16.23;70.80
65478;SHT31;53678;39.642;22.430;2022-10-10T00:44:41;16.36;70.20
65478;SHT31;53678;39.642;22.430;2022-10-10T00:47:08;16.34;70.31
65478;SHT31;53678;39.642;22.430;2022-10-10T00:49:37;16.32;70.42
65478;SHT31;53678;39.642;22.430;2022-10-10T00:52:04;16.32;70.24
65478;SHT31;53678;39.642;22.430;2022-10-10T00:54:32;16.29;70.28
65478;SHT31;53678;39.642;22.430;2022-10-10T00:57:18;16.15;70.71
65478;SHT31;53678;39.642;22.430;2022-10-10T00:59:45;15.95;71.22
65478;SHT31;53678;39.642;22.430;2022-10-10T01:02:11;16.05;71.74
65478;SHT31;53678;39.642;22.430;2022-10-10T01:04:38;15.69;73.36
65478;SHT31;53678;39.642;22.430;2022-10-10T01:07:31;15.78;73.57
65478;SHT31;53678;39.642;22.430;2022-10-10T01:10:07;15.81;73.10
65478;SHT31;53678;39.642;22.430;2022-10-10T01:29:15;16.29;70.92
65478;SHT31;53678;39.642;22.430;2022-10-10T01:31:45;16.40;71.00
65478;SHT31;53678;39.642;22.430;2022-10-10T01:34:29;16.47;70.71
65478;SHT31;53678;39.642;22.430;2022-10-10T01:37:03;16.52;71.30
65478;SHT31;53678;39.642;22.430;2022-10-10T01:39:40;16.50;71.85
65478;SHT31;53678;39.642;22.430;2022-10-10T01:42:21;16.44;72.62
65478;SHT31;53678;39.642;22.430;2022-10-10T01:44:48;16.40;72.97
65478;SHT31;53678;39.642;22.430;2022-10-10T01:47:19;16.36;72.89
65478;SHT31;53678;39.642;22.430;2022-10-10T01:49:48;16.39;72.89
65478;SHT31;53678;39.642;22.430;2022-10-10T02:00:22;16.10;75.34
65478;SHT31;53678;39.642;22.430;2022-10-10T02:02:57;16.19;75.53
65478;SHT31;53678;39.642;22.430;2022-10-10T02:08:11;15.99;75.58
65478;SHT31;53678;39.642;22.430;2022-10-10T02:10:45;15.85;75.86
65478;SHT31;53678;39.642;22.430;2022-10-10T02:13:14;15.84;76.40
65478;SHT31;53678;39.642;22.430;2022-10-10T02:15:47;15.88;75.81
65478;SHT31;53678;39.642;22.430;2022-10-10T02:18:15;15.82;76.21
65478;SHT31;53678;39.642;22.430;2022-10-10T02:20:43;15.87;76.18
65478;SHT31;53678;39.642;22.430;2022-10-10T02:23:13;15.88;75.81
65478;SHT31;53678;39.642;22.430;2022-10-10T02:25:41;15.91;75.97
65478;SHT31;53678;39.642;22.430;2022-10-10T02:28:19;15.96;75.67
65478;SHT31;53678;39.642;22.430;2022-10-10T02:30:48;16.05;75.21
65478;SHT31;53678;39.642;22.430;2022-10-10T02:33:22;16.10;74.96
65478;SHT31;53678;39.642;22.430;2022-10-10T02:35:52;16.16;74.36
65478;SHT31;53678;39.642;22.430;2022-10-10T02:38:19;16.20;73.28
65478;SHT31;53678;39.642;22.430;2022-10-10T02:40:46;16.25;73.09
65478;SHT31;53678;39.642;22.430;2022-10-10T02:43:13;16.32;73.06
65478;SHT31;53678;39.642;22.430;2022-10-10T02:45:42;16.33;72.66
65478;SHT31;53678;39.642;22.430;2022-10-10T02:48:08;16.34;71.81
65478;SHT31;53678;39.642;22.430;2022-10-10T02:50:34;16.33;72.12
65478;SHT31;53678;39.642;22.430;2022-10-10T02:53:00;16.17;72.31
65478;SHT31;53678;39.642;22.430;2022-10-10T02:55:26;16.19;71.82
65478;SHT31;53678;39.642;22.430;2022-10-10T02:57:52;16.32;71.70
65478;SHT31;53678;39.642;22.430;2022-10-10T03:00:18;16.36;71.29
65478;SHT31;53678;39.642;22.430;2022-10-10T03:02:45;16.30;71.39
65478;SHT31;53678;39.642;22.430;2022-10-10T03:05:11;16.36;71.15
65478;SHT31;53678;39.642;22.430;2022-10-10T03:07:39;16.39;71.36
65478;SHT31;53678;39.642;22.430;2022-10-10T03:10:05;16.19;72.25
65478;SHT31;53678;39.642;22.430;2022-10-10T03:12:33;15.89;73.41
65478;SHT31;53678;39.642;22.430;2022-10-10T03:14:59;15.84;74.41
65478;SHT31;53678;39.642;22.430;2022-10-10T03:17:24;15.96;73.68
65478;SHT31;53678;39.642;22.430;2022-10-10T03:19:50;16.02;73.41
65478;SHT31;53678;39.642;22.430;2022-10-10T03:22:16;15.96;73.95
65478;SHT31;53678;39.642;22.430;2022-10-10T03:24:42;15.98;74.14
65478;SHT31;53678;39.642;22.430;2022-10-10T03:27:08;15.84;74.45
65478;SHT31;53678;39.642;22.430;2022-10-10T03:29:34;15.79;74.29
65478;SHT31;53678;39.642;22.430;2022-10-10T03:32:00;15.79;74.32
65478;SHT31;53678;39.642;22.430;2022-10-10T03:34:26;15.50;75.95
65478;SHT31;53678;39.642;22.430;2022-10-10T03:36:52;15.48;76.23
65478;SHT31;53678;39.642;22.430;2022-10-10T03:39:18;15.53;76.01
65478;SHT31;53678;39.642;22.430;2022-10-10T03:41:44;15.58;75.77
65478;SHT31;53678;39.642;22.430;2022-10-10T03:44:09;15.61;75.71
65478;SHT31;53678;39.642;22.430;2022-10-10T03:46:35;15.51;76.06
65478;SHT31;53678;39.642;22.430;2022-10-10T03:49:01;15.41;76.78
65478;SHT31;53678;39.642;22.430;2022-10-10T03:51:27;15.48;76.31
65478;SHT31;53678;39.642;22.430;2022-10-10T03:53:53;15.57;76.06
65478;SHT31;53678;39.642;22.430;2022-10-10T03:56:19;15.48;76.69
65478;SHT31;53678;39.642;22.430;2022-10-10T03:58:45;15.55;76.01
65478;SHT31;53678;39.642;22.430;2022-10-10T04:01:11;15.40;76.68
65478;SHT31;53678;39.642;22.430;2022-10-10T04:03:36;15.31;77.38
65478;SHT31;53678;39.642;22.430;2022-10-10T04:06:02;15.38;77.31
65478;SHT31;53678;39.642;22.430;2022-10-10T04:08:28;15.20;77.74
65478;SHT31;53678;39.642;22.430;2022-10-10T04:10:55;15.31;77.75
65478;SHT31;53678;39.642;22.430;2022-10-10T04:13:22;15.31;77.33
65478;SHT31;53678;39.642;22.430;2022-10-10T04:15:54;15.34;77.00
65478;SHT31;53678;39.642;22.430;2022-10-10T04:18:20;15.43;76.61
65478;SHT31;53678;39.642;22.430;2022-10-10T04:20:46;14.75;79.38
65478;SHT31;53678;39.642;22.430;2022-10-10T04:23:12;14.75;79.82
65478;SHT31;53678;39.642;22.430;2022-10-10T04:25:38;14.86;79.08
65478;SHT31;53678;39.642;22.430;2022-10-10T04:28:03;14.64;80.11
65478;SHT31;53678;39.642;22.430;2022-10-10T04:30:32;14.78;78.65
65478;SHT31;53678;39.642;22.430;2022-10-10T04:32:59;14.64;78.60
65478;SHT31;53678;39.642;22.430;2022-10-10T04:35:25;14.64;80.36
65478;SHT31;53678;39.642;22.430;2022-10-10T04:37:51;14.65;79.42
65478;SHT31;53678;39.642;22.430;2022-10-10T04:40:17;14.62;79.93
65478;SHT31;53678;39.642;22.430;2022-10-10T04:42:43;14.64;80.03
65478;SHT31;53678;39.642;22.430;2022-10-10T04:45:09;14.72;79.66
65478;SHT31;53678;39.642;22.430;2022-10-10T04:47:35;14.59;80.22
65478;SHT31;53678;39.642;22.430;2022-10-10T04:50:01;14.80;78.45
65478;SHT31;53678;39.642;22.430;2022-10-10T04:52:27;14.80;77.75
65478;SHT31;53678;39.642;22.430;2022-10-10T04:54:53;14.83;77.97
65478;SHT31;53678;39.642;22.430;2022-10-10T04:57:19;14.90;77.74
65478;SHT31;53678;39.642;22.430;2022-10-10T04:59:45;14.99;77.04
65478;SHT31;53678;39.642;22.430;2022-10-10T05:02:11;14.96;77.37
65478;SHT31;53678;39.642;22.430;2022-10-10T05:04:36;15.16;76.14
65478;SHT31;53678;39.642;22.430;2022-10-10T05:07:03;15.13;76.85
65478;SHT31;53678;39.642;22.430;2022-10-10T05:09:28;15.16;77.02
65478;SHT31;53678;39.642;22.430;2022-10-10T05:11:54;15.33;76.33
65478;SHT31;53678;39.642;22.430;2022-10-10T05:14:20;15.40;75.81
65478;SHT31;53678;39.642;22.430;2022-10-10T05:16:46;15.54;75.52
65478;SHT31;53678;39.642;22.430;2022-10-10T05:19:12;16.08;73.49
65478;SHT31;53678;39.642;22.430;2022-10-10T05:21:38;16.94;70.15
65478;SHT31;53678;39.642;22.430;2022-10-10T05:24:03;17.86;66.65
65478;SHT31;53678;39.642;22.430;2022-10-10T05:26:30;18.04;66.23
65478;SHT31;53678;39.642;22.430;2022-10-10T05:28:56;18.68;63.92
65478;SHT31;53678;39.642;22.430;2022-10-10T05:31:22;18.95;63.03
65478;SHT31;53678;39.642;22.430;2022-10-10T05:33:47;19.54;61.47
65478;SHT31;53678;39.642;22.430;2022-10-10T05:36:13;19.35;61.41
65478;SHT31;53678;39.642;22.430;2022-10-10T05:38:40;19.11;62.10
65478;SHT31;53678;39.642;22.430;2022-10-10T05:41:07;19.62;60.78
65478;SHT31;53678;39.642;22.430;2022-10-10T05:43:33;20.29;59.68
65478;SHT31;53678;39.642;22.430;2022-10-10T05:46:00;20.70;58.79
65478;SHT31;53678;39.642;22.430;2022-10-10T05:48:26;20.98;58.50
65478;SHT31;53678;39.642;22.430;2022-10-10T05:50:57;21.47;56.37
65478;SHT31;53678;39.642;22.430;2022-10-10T05:53:25;22.02;55.06
65478;SHT31;53678;39.642;22.430;2022-10-10T05:55:52;22.31;54.59
65478;SHT31;53678;39.642;22.430;2022-10-10T05:58:19;22.70;53.88
65478;SHT31;53678;39.642;22.430;2022-10-10T06:00:46;23.11;52.78
65478;SHT31;53678;39.642;22.430;2022-10-10T06:03:13;23.28;52.73
65478;SHT31;53678;39.642;22.430;2022-10-10T06:05:45;23.78;51.02
65478;SHT31;53678;39.642;22.430;2022-10-10T06:08:13;23.98;51.21
65478;SHT31;53678;39.642;22.430;2022-10-10T06:10:42;24.53;49.91
65478;SHT31;53678;39.642;22.430;2022-10-10T06:13:10;23.78;51.73
65478;SHT31;53678;39.642;22.430;2022-10-10T06:15:36;23.21;53.80
65478;SHT31;53678;39.642;22.430;2022-10-10T06:18:02;23.35;53.40
65478;SHT31;53678;39.642;22.430;2022-10-10T06:20:28;22.76;54.15
65478;SHT31;53678;39.642;22.430;2022-10-10T06:22:54;22.12;55.76
65478;SHT31;53678;39.642;22.430;2022-10-10T06:25:20;22.02;56.18
65478;SHT31;53678;39.642;22.430;2022-10-10T06:27:46;21.69;56.59
65478;SHT31;53678;39.642;22.430;2022-10-10T06:30:12;21.59;57.69
65478;SHT31;53678;39.642;22.430;2022-10-10T06:32:38;21.45;57.64
65478;SHT31;53678;39.642;22.430;2022-10-10T06:35:04;21.11;58.77
65478;SHT31;53678;39.642;22.430;2022-10-10T06:37:32;20.60;60.43
65478;SHT31;53678;39.642;22.430;2022-10-10T06:39:58;20.26;61.37
65478;SHT31;53678;39.642;22.430;2022-10-10T06:42:24;20.02;62.19
65478;SHT31;53678;39.642;22.430;2022-10-10T06:44:55;20.32;61.29
65478;SHT31;53678;39.642;22.430;2022-10-10T06:47:22;20.58;61.09
65478;SHT31;53678;39.642;22.430;2022-10-10T06:49:47;20.64;61.11
65478;SHT31;53678;39.642;22.430;2022-10-10T06:52:13;20.71;60.87
65478;SHT31;53678;39.642;22.430;2022-10-10T06:54:39;20.96;59.86
65478;SHT31;53678;39.642;22.430;2022-10-10T06:57:05;21.13;59.64
65478;SHT31;53678;39.642;22.430;2022-10-10T06:59:31;21.01;60.40
65478;SHT31;53678;39.642;22.430;2022-10-10T07:01:57;20.64;61.38
65478;SHT31;53678;39.642;22.430;2022-10-10T07:04:23;20.80;61.46
65478;SHT31;53678;39.642;22.430;2022-10-10T07:06:48;21.26;60.16
65478;SHT31;53678;39.642;22.430;2022-10-10T07:09:14;20.91;60.93
65478;SHT31;53678;39.642;22.430;2022-10-10T07:11:43;20.96;61.14
65478;SHT31;53678;39.642;22.430;2022-10-10T07:14:12;21.57;60.32
65478;SHT31;53678;39.642;22.430;2022-10-10T07:16:38;22.21;59.19
65478;SHT31;53678;39.642;22.430;2022-10-10T07:19:04;22.52;58.12
65478;SHT31;53678;39.642;22.430;2022-10-10T07:21:31;22.11;59.54
65478;SHT31;53678;39.642;22.430;2022-10-10T07:23:57;22.01;60.56
65478;SHT31;53678;39.642;22.430;2022-10-10T07:26:23;22.02;60.24
65478;SHT31;53678;39.642;22.430;2022-10-10T07:28:52;21.67;61.36
65478;SHT31;53678;39.642;22.430;2022-10-10T07:31:18;22.14;60.72
65478;SHT31;53678;39.642;22.430;2022-10-10T07:33:46;22.11;61.08
65478;SHT31;53678;39.642;22.430;2022-10-10T07:36:13;22.66;60.17
65478;SHT31;53678;39.642;22.430;2022-10-10T07:38:39;23.04;58.96
65478;SHT31;53678;39.642;22.430;2022-10-10T07:41:06;23.43;58.15
65478;SHT31;53678;39.642;22.430;2022-10-10T07:43:32;23.62;57.94
65478;SHT31;53678;39.642;22.430;2022-10-10T07:45:58;23.79;57.15
65478;SHT31;53678;39.642;22.430;2022-10-10T07:48:24;23.65;57.75
65478;SHT31;53678;39.642;22.430;2022-10-10T07:50:50;23.31;58.74
65478;SHT31;53678;39.642;22.430;2022-10-10T07:53:16;23.16;59.53
65478;SHT31;53678;39.642;22.430;2022-10-10T07:55:42;23.20;59.21
65478;SHT31;53678;39.642;22.430;2022-10-10T07:58:10;23.03;59.66
65478;SHT31;53678;39.642;22.430;2022-10-10T08:00:36;22.87;59.55
65478;SHT31;53678;39.642;22.430;2022-10-10T08:03:06;22.92;59.84
65478;SHT31;53678;39.642;22.430;2022-10-10T08:05:32;23.17;59.27
65478;SHT31;53678;39.642;22.430;2022-10-10T08:07:58;23.38;58.25
65478;SHT31;53678;39.642;22.430;2022-10-10T08:10:27;23.38;56.70
65478;SHT31;53678;39.642;22.430;2022-10-10T08:12:53;23.34;56.77
65478;SHT31;53678;39.642;22.430;2022-10-10T08:15:19;23.57;56.19
65478;SHT31;53678;39.642;22.430;2022-10-10T08:17:44;23.71;56.01
65478;SHT31;53678;39.642;22.430;2022-10-10T08:20:10;23.74;55.67
65478;SHT31;53678;39.642;22.430;2022-10-10T08:22:36;23.61;55.65
65478;SHT31;53678;39.642;22.430;2022-10-10T08:25:02;23.55;55.73
65478;SHT31;53678;39.642;22.430;2022-10-10T08:27:28;23.17;56.74
65478;SHT31;53678;39.642;22.430;2022-10-10T08:29:54;23.31;56.32
65478;SHT31;53678;39.642;22.430;2022-10-10T08:32:20;22.10;59.03
65478;SHT31;53678;39.642;22.430;2022-10-10T08:34:46;22.10;59.25
65478;SHT31;53678;39.642;22.430;2022-10-10T08:37:12;22.39;58.57
65478;SHT31;53678;39.642;22.430;2022-10-10T08:39:37;23.08;56.47
65478;SHT31;53678;39.642;22.430;2022-10-10T08:42:03;23.54;55.26
65478;SHT31;53678;39.642;22.430;2022-10-10T08:44:38;23.84;54.32
65478;SHT31;53678;39.642;22.430;2022-10-10T08:47:20;24.03;52.92
65478;SHT31;53678;39.642;22.430;2022-10-10T08:49:54;24.12;52.64
65478;SHT31;53678;39.642;22.430;2022-10-10T08:52:42;24.09;52.51
65478;SHT31;53678;39.642;22.430;2022-10-10T08:55:24;24.09;52.73
65478;SHT31;53678;39.642;22.430;2022-10-10T08:58:00;24.19;51.33
65478;SHT31;53678;39.642;22.430;2022-10-10T09:00:34;24.17;51.90
65478;SHT31;53678;39.642;22.430;2022-10-10T09:03:17;24.29;51.84
65478;SHT31;53678;39.642;22.430;2022-10-10T09:22:30;24.39;50.04
65478;SHT31;53678;39.642;22.430;2022-10-10T09:25:26;23.82;50.94
65478;SHT31;53678;39.642;22.430;2022-10-10T09:28:05;24.12;50.37
65478;SHT31;53678;39.642;22.430;2022-10-10T09:30:36;24.24;49.84
65478;SHT31;53678;39.642;22.430;2022-10-10T09:33:30;24.23;49.80
65478;SHT31;53678;39.642;22.430;2022-10-10T09:36:02;24.14;50.25
65478;SHT31;53678;39.642;22.430;2022-10-10T09:38:40;23.84;51.29
65478;SHT31;53678;39.642;22.430;2022-10-10T09:41:27;24.12;50.78
65478;SHT31;53678;39.642;22.430;2022-10-10T09:43:58;24.09;50.77
65478;SHT31;53678;39.642;22.430;2022-10-10T09:46:24;24.02;50.49
65478;SHT31;53678;39.642;22.430;2022-10-10T09:48:51;24.34;49.61
65478;SHT31;53678;39.642;22.430;2022-10-10T09:51:19;24.46;49.38
65478;SHT31;53678;39.642;22.430;2022-10-10T09:53:46;24.56;49.58
65478;SHT31;53678;39.642;22.430;2022-10-10T09:56:23;24.40;50.02
65478;SHT31;53678;39.642;22.430;2022-10-10T09:58:54;24.43;49.71
65478;SHT31;53678;39.642;22.430;2022-10-10T10:01:22;24.59;49.55
65478;SHT31;53678;39.642;22.430;2022-10-10T10:06:45;23.96;49.99
65478;SHT31;53678;39.642;22.430;2022-10-10T10:09:29;23.90;50.25
65478;SHT31;53678;39.642;22.430;2022-10-10T10:11:56;23.98;50.11
65478;SHT31;53678;39.642;22.430;2022-10-10T10:14:34;24.49;49.20
65478;SHT31;53678;39.642;22.430;2022-10-10T10:17:14;24.53;48.52
65478;SHT31;53678;39.642;22.430;2022-10-10T10:19:43;24.32;49.36
65478;SHT31;53678;39.642;22.430;2022-10-10T10:22:26;24.36;49.58
65478;SHT31;53678;39.642;22.430;2022-10-10T10:24:54;24.47;48.50
65478;SHT31;53678;39.642;22.430;2022-10-10T10:27:23;24.61;47.93
65478;SHT31;53678;39.642;22.430;2022-10-10T10:29:51;24.29;48.91
65478;SHT31;53678;39.642;22.430;2022-10-10T10:41:18;24.72;47.89
65478;SHT31;53678;39.642;22.430;2022-10-10T10:49:02;25.12;47.76
65478;SHT31;53678;39.642;22.430;2022-10-10T10:59:25;24.75;49.11
65478;SHT31;53678;39.642;22.430;2022-10-10T11:07:24;24.78;49.81
65478;SHT31;53678;39.642;22.430;2022-10-10T11:20:15;24.47;49.02
65478;SHT31;53678;39.642;22.430;2022-10-10T11:25:45;24.22;50.01
65478;SHT31;53678;39.642;22.430;2022-10-10T11:30:45;24.56;49.83
65478;SHT31;53678;39.642;22.430;2022-10-10T11:33:18;24.65;50.14
65478;SHT31;53678;39.642;22.430;2022-10-10T11:35:52;24.67;50.05
65478;SHT31;53678;39.642;22.430;2022-10-10T11:38:26;25.08;49.81
65478;SHT31;53678;39.642;22.430;2022-10-10T11:41:05;24.90;49.07
65478;SHT31;53678;39.642;22.430;2022-10-10T11:43:44;24.72;49.71
65478;SHT31;53678;39.642;22.430;2022-10-10T11:46:41;24.47;50.47
65478;SHT31;53678;39.642;22.430;2022-10-10T11:49:18;24.22;51.37
65478;SHT31;53678;39.642;22.430;2022-10-10T11:54:49;24.50;50.30
65478;SHT31;53678;39.642;22.430;2022-10-10T11:57:36;24.37;50.07
65478;SHT31;53678;39.642;22.430;2022-10-10T12:00:09;24.27;49.88
65478;SHT31;53678;39.642;22.430;2022-10-10T12:02:36;24.27;49.45
65478;SHT31;53678;39.642;22.430;2022-10-10T12:05:05;24.23;49.62
65478;SHT31;53678;39.642;22.430;2022-10-10T12:07:37;24.24;49.39
65478;SHT31;53678;39.642;22.430;2022-10-10T12:13:30;24.41;48.92
65478;SHT31;53678;39.642;22.430;2022-10-10T12:16:11;24.59;48.68
65478;SHT31;53678;39.642;22.430;2022-10-10T12:18:50;24.61;48.34
65478;SHT31;53678;39.642;22.430;2022-10-10T12:21:19;24.68;48.30
65478;SHT31;53678;39.642;22.430;2022-10-10T12:23:46;24.75;48.40
65478;SHT31;53678;39.642;22.430;2022-10-10T12:26:15;24.77;48.55
65478;SHT31;53678;39.642;22.430;2022-10-10T12:29:02;24.77;48.29
65478;SHT31;53678;39.642;22.430;2022-10-10T12:31:32;24.87;48.23
65478;SHT31;53678;39.642;22.430;2022-10-10T12:34:11;24.91;48.29
65478;SHT31;53678;39.642;22.430;2022-10-10T12:41:52;24.47;48.49
65478;SHT31;53678;39.642;22.430;2022-10-10T12:47:28;24.59;47.51
65478;SHT31;53678;39.642;22.430;2022-10-10T12:50:02;24.77;47.65
65478;SHT31;53678;39.642;22.430;2022-10-10T12:52:34;24.57;47.81
65478;SHT31;53678;39.642;22.430;2022-10-10T12:55:05;24.41;47.85
65478;SHT31;53678;39.642;22.430;2022-10-10T12:57:43;24.46;47.81
65478;SHT31;53678;39.642;22.430;2022-10-10T13:00:22;24.24;47.80
65478;SHT31;53678;39.642;22.430;2022-10-10T13:02:57;24.30;48.35
65478;SHT31;53678;39.642;22.430;2022-10-10T13:05:28;24.17;48.74
65478;SHT31;53678;39.642;22.430;2022-10-10T13:08:00;24.27;47.89
65478;SHT31;53678;39.642;22.430;2022-10-10T13:10:28;24.26;47.55
65478;SHT31;53678;39.642;22.430;2022-10-10T13:15:28;24.50;46.13
65478;SHT31;53678;39.642;22.430;2022-10-10T13:17:55;24.37;46.58
65478;SHT31;53678;39.642;22.430;2022-10-10T13:20:30;24.20;47.17
65478;SHT31;53678;39.642;22.430;2022-10-10T13:23:03;24.23;47.72
65478;SHT31;53678;39.642;22.430;2022-10-10T13:25:29;24.36;47.83
65478;SHT31;53678;39.642;22.430;2022-10-10T13:27:55;24.20;47.59
65478;SHT31;53678;39.642;22.430;2022-10-10T13:30:23;24.30;46.85
65478;SHT31;53678;39.642;22.430;2022-10-10T13:32:51;24.20;46.93
65478;SHT31;53678;39.642;22.430;2022-10-10T13:35:27;24.36;47.08
65478;SHT31;53678;39.642;22.430;2022-10-10T13:37:56;24.32;46.34
65478;SHT31;53678;39.642;22.430;2022-10-10T13:40:23;24.06;47.60
65478;SHT31;53678;39.642;22.430;2022-10-10T13:42:51;24.16;47.21
65478;SHT31;53678;39.642;22.430;2022-10-10T13:45:37;24.06;46.35
65478;SHT31;53678;39.642;22.430;2022-10-10T13:48:21;24.13;45.87
65478;SHT31;53678;39.642;22.430;2022-10-10T13:50:53;24.13;45.82
65478;SHT31;53678;39.642;22.430;2022-10-10T13:58:25;24.20;44.46
65478;SHT31;53678;39.642;22.430;2022-10-10T14:00:58;23.95;45.13
65478;SHT31;53678;39.642;22.430;2022-10-10T14:03:25;24.08;45.01
65478;SHT31;53678;39.642;22.430;2022-10-10T14:05:51;23.95;45.67
65478;SHT31;53678;39.642;22.430;2022-10-10T14:08:20;23.96;45.51
65478;SHT31;53678;39.642;22.430;2022-10-10T14:11:02;24.01;44.95
65478;SHT31;53678;39.642;22.430;2022-10-10T14:13:30;23.86;47.07
65478;SHT31;53678;39.642;22.430;2022-10-10T14:18:45;23.72;45.78
65478;SHT31;53678;39.642;22.430;2022-10-10T14:21:11;23.69;47.07
65478;SHT31;53678;39.642;22.430;2022-10-10T14:23:39;23.57;49.01
65478;SHT31;53678;39.642;22.430;2022-10-10T14:26:10;23.54;49.24
65478;SHT31;53678;39.642;22.430;2022-10-10T14:28:37;23.41;47.91
65478;SHT31;53678;39.642;22.430;2022-10-10T14:31:04;23.33;48.75
65478;SHT31;53678;39.642;22.430;2022-10-10T14:33:30;23.40;48.50
65478;SHT31;53678;39.642;22.430;2022-10-10T14:35:57;23.37;49.38
65478;SHT31;53678;39.642;22.430;2022-10-10T14:38:24;23.21;51.99
65478;SHT31;53678;39.642;22.430;2022-10-10T14:40:50;23.17;52.26
65478;SHT31;53678;39.642;22.430;2022-10-10T14:43:17;22.97;53.54
65478;SHT31;53678;39.642;22.430;2022-10-10T14:45:45;22.96;53.61
65478;SHT31;53678;39.642;22.430;2022-10-10T14:48:13;22.90;54.06
65478;SHT31;53678;39.642;22.430;2022-10-10T14:50:41;22.82;54.25
65478;SHT31;53678;39.642;22.430;2022-10-10T14:53:09;22.76;54.74
65478;SHT31;53678;39.642;22.430;2022-10-10T14:55:35;22.72;54.66
65478;SHT31;53678;39.642;22.430;2022-10-10T14:58:01;22.52;54.85
65478;SHT31;53678;39.642;22.430;2022-10-10T15:00:28;22.52;55.29
65478;SHT31;53678;39.642;22.430;2022-10-10T15:02:54;22.47;55.79
65478;SHT31;53678;39.642;22.430;2022-10-10T15:05:20;22.47;56.43
65478;SHT31;53678;39.642;22.430;2022-10-10T15:07:47;22.49;56.65
65478;SHT31;53678;39.642;22.430;2022-10-10T15:10:15;22.38;56.59
65478;SHT31;53678;39.642;22.430;2022-10-10T15:12:43;22.27;57.36
65478;SHT31;53678;39.642;22.430;2022-10-10T15:15:11;22.07;59.54
65478;SHT31;53678;39.642;22.430;2022-10-10T15:17:37;22.00;60.46
65478;SHT31;53678;39.642;22.430;2022-10-10T15:20:06;21.93;60.65
65478;SHT31;53678;39.642;22.430;2022-10-10T15:22:33;22.00;61.01
65478;SHT31;53678;39.642;22.430;2022-10-10T15:24:59;21.84;61.84
65478;SHT31;53678;39.642;22.430;2022-10-10T15:27:25;21.83;61.70
65478;SHT31;53678;39.642;22.430;2022-10-10T15:29:53;21.81;62.10
65478;SHT31;53678;39.642;22.430;2022-10-10T15:32:19;21.84;62.50
65478;SHT31;53678;39.642;22.430;2022-10-10T15:34:49;21.74;63.29
65478;SHT31;53678;39.642;22.430;2022-10-10T15:37:15;21.62;63.69
65478;SHT31;53678;39.642;22.430;2022-10-10T15:39:41;21.54;63.95
65478;SHT31;53678;39.642;22.430;2022-10-10T15:42:10;21.33;64.25
65478;SHT31;53678;39.642;22.430;2022-10-10T15:44:36;21.25;63.88
65478;SHT31;53678;39.642;22.430;2022-10-10T15:47:03;21.28;63.22
65478;SHT31;53678;39.642;22.430;2022-10-10T15:49:28;21.21;62.37
65478;SHT31;53678;39.642;22.430;2022-10-10T15:51:54;21.15;62.11
65478;SHT31;53678;39.642;22.430;2022-10-10T15:54:20;21.12;63.00
65478;SHT31;53678;39.642;22.430;2022-10-10T15:56:46;21.02;64.25
65478;SHT31;53678;39.642;22.430;2022-10-10T15:59:12;20.91;64.97
65478;SHT31;53678;39.642;22.430;2022-10-10T16:01:38;20.85;65.24
65478;SHT31;53678;39.642;22.430;2022-10-10T16:04:05;20.83;64.64
65478;SHT31;53678;39.642;22.430;2022-10-10T16:06:31;20.78;65.25
65478;SHT31;53678;39.642;22.430;2022-10-10T16:08:58;20.68;66.24
65478;SHT31;53678;39.642;22.430;2022-10-10T16:11:24;20.61;66.78
65478;SHT31;53678;39.642;22.430;2022-10-10T16:13:52;20.57;67.04
65478;SHT31;53678;39.642;22.430;2022-10-10T16:16:20;20.51;67.48
65478;SHT31;53678;39.642;22.430;2022-10-10T16:18:46;20.54;67.62
65478;SHT31;53678;39.642;22.430;2022-10-10T16:21:18;20.41;68.15
65478;SHT31;53678;39.642;22.430;2022-10-10T16:23:46;20.40;68.67
65478;SHT31;53678;39.642;22.430;2022-10-10T16:26:22;20.27;69.87
65478;SHT31;53678;39.642;22.430;2022-10-10T16:28:48;20.26;70.29
65478;SHT31;53678;39.642;22.430;2022-10-10T16:31:17;20.26;70.73
65478;SHT31;53678;39.642;22.430;2022-10-10T16:33:43;20.22;71.05
65478;SHT31;53678;39.642;22.430;2022-10-10T16:36:18;20.25;71.32
65478;SHT31;53678;39.642;22.430;2022-10-10T16:38:45;20.19;71.58
65478;SHT31;53678;39.642;22.430;2022-10-10T16:41:14;20.20;71.75
65478;SHT31;53678;39.642;22.430;2022-10-10T16:43:42;20.09;72.00
65478;SHT31;53678;39.642;22.430;2022-10-10T16:46:10;20.05;72.40
65478;SHT31;53678;39.642;22.430;2022-10-10T16:48:38;19.96;72.83
65478;SHT31;53678;39.642;22.430;2022-10-10T16:51:11;19.96;73.06
65478;SHT31;53678;39.642;22.430;2022-10-10T16:53:37;19.95;73.06
65478;SHT31;53678;39.642;22.430;2022-10-10T16:56:05;19.96;73.05
65478;SHT31;53678;39.642;22.430;2022-10-10T16:58:33;19.95;73.13
65478;SHT31;53678;39.642;22.430;2022-10-10T17:00:59;19.99;73.15
65478;SHT31;53678;39.642;22.430;2022-10-10T17:03:44;19.92;73.57
65478;SHT31;53678;39.642;22.430;2022-10-10T17:06:14;19.89;73.96
65478;SHT31;53678;39.642;22.430;2022-10-10T17:08:41;19.93;74.04
65478;SHT31;53678;39.642;22.430;2022-10-10T17:11:07;19.93;74.12
65478;SHT31;53678;39.642;22.430;2022-10-10T17:13:36;19.95;74.47
65478;SHT31;53678;39.642;22.430;2022-10-10T17:16:06;19.93;74.53
65478;SHT31;53678;39.642;22.430;2022-10-10T17:18:33;19.82;74.59
65478;SHT31;53678;39.642;22.430;2022-10-10T17:21:00;19.82;74.52